createdAt,value
2022-12-20T00:00:24.436Z,1009.40
2022-12-20T00:01:24.490Z,1009.42
2022-12-20T00:02:24.596Z,1009.37
2022-12-20T00:03:24.413Z,1009.45
2022-12-20T00:04:24.391Z,1009.46
2022-12-20T00:05:24.387Z,1009.45
2022-12-20T00:06:24.406Z,1009.47
2022-12-20T00:07:24.416Z,1009.47
2022-12-20T00:08:24.338Z,1009.35
2022-12-20T00:09:24.350Z,1009.38
2022-12-20T00:10:24.323Z,1009.39
2022-12-20T00:11:24.312Z,1009.39
2022-12-20T00:12:24.296Z,1009.48
2022-12-20T00:13:24.286Z,1009.45
2022-12-20T00:14:24.290Z,1009.46
2022-12-20T00:15:24.253Z,1009.45
2022-12-20T00:16:24.247Z,1009.34
2022-12-20T00:17:24.290Z,1009.29
2022-12-20T00:18:24.230Z,1009.24
2022-12-20T00:19:24.204Z,1009.23
2022-12-20T00:20:24.199Z,1009.23
2022-12-20T00:21:24.210Z,1009.13
2022-12-20T00:22:24.188Z,1009.05
2022-12-20T00:23:24.200Z,1009.04
2022-12-20T00:24:26.520Z,1009.01
2022-12-20T00:25:24.189Z,1009.01
2022-12-20T00:26:24.144Z,1009.07
2022-12-20T00:27:24.159Z,1008.91
2022-12-20T00:28:24.121Z,1009.04
2022-12-20T00:29:24.173Z,1009.04
2022-12-20T00:30:24.082Z,1009.08
2022-12-20T00:31:24.147Z,1009.01
2022-12-20T00:32:24.086Z,1009.01
2022-12-20T00:33:24.064Z,1009.07
2022-12-20T00:34:24.055Z,1009.01
2022-12-20T00:35:24.045Z,1008.93
2022-12-20T00:36:24.076Z,1008.89
2022-12-20T00:37:24.040Z,1008.83
2022-12-20T00:38:24.008Z,1008.87
2022-12-20T00:39:23.992Z,1008.76
2022-12-20T00:40:24.000Z,1008.81
2022-12-20T00:41:24.001Z,1008.79
2022-12-20T00:42:24.029Z,1008.74
2022-12-20T00:43:23.957Z,1008.76
2022-12-20T00:44:23.945Z,1008.83
2022-12-20T00:45:23.955Z,1008.81
2022-12-20T00:46:23.952Z,1008.73
2022-12-20T00:47:23.921Z,1008.76
2022-12-20T00:48:23.899Z,1008.80
2022-12-20T00:49:23.892Z,1008.80
2022-12-20T00:50:23.863Z,1008.77
2022-12-20T00:51:23.851Z,1008.88
2022-12-20T00:52:23.841Z,1008.84
2022-12-20T00:53:26.530Z,1008.81
2022-12-20T00:54:23.829Z,1008.80
2022-12-20T00:55:23.822Z,1008.86
2022-12-20T00:56:23.825Z,1008.74
2022-12-20T00:57:23.848Z,1008.73
2022-12-20T00:58:23.796Z,1008.74
2022-12-20T00:59:23.764Z,1008.75
2022-12-20T01:00:23.802Z,1008.78
2022-12-20T01:01:23.968Z,1008.73
2022-12-20T01:02:23.975Z,1008.71
2022-12-20T01:03:23.984Z,1008.74
2022-12-20T01:04:23.716Z,1008.78
2022-12-20T01:05:23.729Z,1008.82
2022-12-20T01:06:23.692Z,1008.85
2022-12-20T01:07:23.693Z,1008.92
2022-12-20T01:08:23.680Z,1008.92
2022-12-20T01:09:23.666Z,1008.88
2022-12-20T01:10:23.661Z,1008.90
2022-12-20T01:11:23.665Z,1008.85
2022-12-20T01:12:23.645Z,1008.97
2022-12-20T01:13:23.626Z,1008.88
2022-12-20T01:14:23.652Z,1008.90
2022-12-20T01:15:23.604Z,1008.89
2022-12-20T01:16:23.649Z,1008.85
2022-12-20T01:17:23.561Z,1008.88
2022-12-20T01:18:23.574Z,1008.96
2022-12-20T01:19:23.544Z,1008.97
2022-12-20T01:20:23.561Z,1008.99
2022-12-20T01:21:23.526Z,1009.02
2022-12-20T01:22:23.526Z,1008.95
2022-12-20T01:23:23.508Z,1008.99
2022-12-20T01:24:23.503Z,1008.98
2022-12-20T01:25:23.514Z,1009.00
2022-12-20T01:26:23.480Z,1008.91
2022-12-20T01:27:23.498Z,1008.93
2022-12-20T01:28:23.467Z,1008.95
2022-12-20T01:29:23.471Z,1008.90
2022-12-20T01:30:23.424Z,1008.88
2022-12-20T01:31:23.535Z,1008.91
2022-12-20T01:32:23.428Z,1008.87
2022-12-20T01:33:23.405Z,1008.83
2022-12-20T01:34:23.397Z,1008.83
2022-12-20T01:35:23.379Z,1008.72
2022-12-20T01:36:23.370Z,1008.76
2022-12-20T01:37:23.393Z,1008.72
2022-12-20T01:38:23.354Z,1008.83
2022-12-20T01:39:23.346Z,1008.78
2022-12-20T01:40:23.322Z,1008.77
2022-12-20T01:41:23.316Z,1008.79
2022-12-20T01:42:23.317Z,1008.83
2022-12-20T01:43:23.310Z,1008.92
2022-12-20T01:44:23.265Z,1008.88
2022-12-20T01:45:23.286Z,1008.85
2022-12-20T01:46:23.360Z,1008.84
2022-12-20T01:47:23.228Z,1008.85
2022-12-20T01:48:23.224Z,1008.80
2022-12-20T01:49:23.255Z,1008.72
2022-12-20T01:50:23.230Z,1008.70
2022-12-20T01:51:23.188Z,1008.69
2022-12-20T01:52:23.205Z,1008.67
2022-12-20T01:53:23.193Z,1008.64
2022-12-20T01:54:23.173Z,1008.59
2022-12-20T01:55:23.168Z,1008.59
2022-12-20T01:56:23.154Z,1008.55
2022-12-20T01:57:23.136Z,1008.63
2022-12-20T01:58:23.112Z,1008.67
2022-12-20T01:59:23.096Z,1008.61
2022-12-20T02:00:23.103Z,1008.66
2022-12-20T02:01:23.338Z,1008.63
2022-12-20T02:02:23.175Z,1008.65
2022-12-20T02:03:23.155Z,1008.61
2022-12-20T02:04:23.146Z,1008.65
2022-12-20T02:05:23.038Z,1008.68
2022-12-20T02:06:23.067Z,1008.70
2022-12-20T02:07:23.041Z,1008.63
2022-12-20T02:08:23.023Z,1008.65
2022-12-20T02:09:23.024Z,1008.64
2022-12-20T02:10:22.987Z,1008.65
2022-12-20T02:11:23.014Z,1008.65
2022-12-20T02:12:22.953Z,1008.64
2022-12-20T02:13:22.964Z,1008.58
2022-12-20T02:14:22.961Z,1008.58
2022-12-20T02:15:22.937Z,1008.59
2022-12-20T02:16:22.995Z,1008.64
2022-12-20T02:17:22.923Z,1008.59
2022-12-20T02:18:22.900Z,1008.63
2022-12-20T02:19:22.893Z,1008.69
2022-12-20T02:20:22.888Z,1008.64
2022-12-20T02:21:22.881Z,1008.72
2022-12-20T02:22:22.842Z,1008.68
2022-12-20T02:23:22.848Z,1008.73
2022-12-20T02:24:22.850Z,1008.74
2022-12-20T02:25:22.815Z,1008.71
2022-12-20T02:26:22.819Z,1008.74
2022-12-20T02:27:22.805Z,1008.67
2022-12-20T02:28:22.775Z,1008.62
2022-12-20T02:29:22.799Z,1008.58
2022-12-20T02:30:22.772Z,1008.60
2022-12-20T02:31:22.779Z,1008.52
2022-12-20T02:32:22.870Z,1008.58
2022-12-20T02:33:22.764Z,1008.58
2022-12-20T02:34:22.743Z,1008.50
2022-12-20T02:35:22.717Z,1008.50
2022-12-20T02:36:22.693Z,1008.51
2022-12-20T02:37:22.702Z,1008.51
2022-12-20T02:38:22.707Z,1008.46
2022-12-20T02:39:22.662Z,1008.52
2022-12-20T02:40:22.665Z,1008.54
2022-12-20T02:41:22.643Z,1008.53
2022-12-20T02:42:22.660Z,1008.55
2022-12-20T02:43:22.623Z,1008.54
2022-12-20T02:44:22.615Z,1008.54
2022-12-20T02:45:22.600Z,1008.48
2022-12-20T02:46:22.695Z,1008.53
2022-12-20T02:47:22.574Z,1008.57
2022-12-20T02:48:22.657Z,1008.59
2022-12-20T02:49:22.590Z,1008.68
2022-12-20T02:50:22.556Z,1008.68
2022-12-20T02:51:22.533Z,1008.65
2022-12-20T02:52:22.543Z,1008.76
2022-12-20T02:53:22.543Z,1008.71
2022-12-20T02:54:22.515Z,1008.62
2022-12-20T02:55:22.509Z,1008.61
2022-12-20T02:56:22.501Z,1008.65
2022-12-20T02:57:22.479Z,1008.67
2022-12-20T02:58:22.457Z,1008.63
2022-12-20T02:59:22.437Z,1008.62
2022-12-20T03:00:22.443Z,1008.57
2022-12-20T03:01:22.597Z,1008.60
2022-12-20T03:02:22.672Z,1008.56
2022-12-20T03:03:22.466Z,1008.54
2022-12-20T03:04:22.379Z,1008.54
2022-12-20T03:05:22.415Z,1008.52
2022-12-20T03:06:22.377Z,1008.49
2022-12-20T03:07:22.359Z,1008.52
2022-12-20T03:08:22.350Z,1008.50
2022-12-20T03:09:22.321Z,1008.55
2022-12-20T03:10:22.347Z,1008.52
2022-12-20T03:11:22.326Z,1008.52
2022-12-20T03:12:22.344Z,1008.47
2022-12-20T03:13:22.290Z,1008.47
2022-12-20T03:14:22.297Z,1008.38
2022-12-20T03:15:22.264Z,1008.29
2022-12-20T03:16:22.361Z,1008.33
2022-12-20T03:17:22.233Z,1008.28
2022-12-20T03:18:22.261Z,1008.28
2022-12-20T03:19:22.232Z,1008.28
2022-12-20T03:20:22.216Z,1008.25
2022-12-20T03:21:22.241Z,1008.21
2022-12-20T03:22:22.191Z,1008.26
2022-12-20T03:23:22.323Z,1008.21
2022-12-20T03:24:22.208Z,1008.16
2022-12-20T03:25:22.156Z,1008.10
2022-12-20T03:26:22.155Z,1008.05
2022-12-20T03:27:22.134Z,1008.04
2022-12-20T03:28:22.110Z,1008.06
2022-12-20T03:29:22.114Z,1008.16
2022-12-20T03:30:22.098Z,1008.16
2022-12-20T03:31:22.183Z,1008.13
2022-12-20T03:32:22.079Z,1008.11
2022-12-20T03:33:22.087Z,1008.16
2022-12-20T03:34:22.060Z,1008.14
2022-12-20T03:35:22.073Z,1008.22
2022-12-20T03:36:22.026Z,1008.19
2022-12-20T03:37:22.052Z,1008.21
2022-12-20T03:38:22.025Z,1008.20
2022-12-20T03:39:22.007Z,1008.23
2022-12-20T03:40:21.997Z,1008.20
2022-12-20T03:41:22.020Z,1008.24
2022-12-20T03:42:21.962Z,1008.22
2022-12-20T03:43:21.960Z,1008.18
2022-12-20T03:44:22.044Z,1008.16
2022-12-20T03:45:21.965Z,1008.17
2022-12-20T03:46:22.129Z,1008.26
2022-12-20T03:47:21.919Z,1008.32
2022-12-20T03:48:21.915Z,1008.32
2022-12-20T03:49:21.905Z,1008.31
2022-12-20T03:50:21.878Z,1008.31
2022-12-20T03:51:21.900Z,1008.34
2022-12-20T03:52:21.842Z,1008.37
2022-12-20T03:53:21.888Z,1008.41
2022-12-20T03:54:21.843Z,1008.34
2022-12-20T03:55:21.842Z,1008.37
2022-12-20T03:56:21.827Z,1008.32
2022-12-20T03:57:21.831Z,1008.27
2022-12-20T03:58:21.777Z,1008.24
2022-12-20T03:59:21.772Z,1008.20
2022-12-20T04:00:21.774Z,1008.15
2022-12-20T04:01:21.868Z,1008.09
2022-12-20T04:02:21.903Z,1008.15
2022-12-20T04:03:21.787Z,1008.16
2022-12-20T04:04:21.731Z,1008.25
2022-12-20T04:05:21.729Z,1008.14
2022-12-20T04:06:21.716Z,1008.17
2022-12-20T04:07:21.707Z,1008.17
2022-12-20T04:08:21.693Z,1008.14
2022-12-20T04:09:21.699Z,1008.11
2022-12-20T04:10:21.655Z,1008.15
2022-12-20T04:11:21.636Z,1008.19
2022-12-20T04:12:21.629Z,1008.19
2022-12-20T04:13:21.656Z,1008.19
2022-12-20T04:14:21.637Z,1008.17
2022-12-20T04:15:21.588Z,1008.22
2022-12-20T04:16:21.703Z,1008.17
2022-12-20T04:17:21.573Z,1008.19
2022-12-20T04:18:21.585Z,1008.19
2022-12-20T04:19:21.576Z,1008.18
2022-12-20T04:20:21.573Z,1008.17
2022-12-20T04:21:21.537Z,1008.14
2022-12-20T04:22:21.531Z,1008.12
2022-12-20T04:23:21.520Z,1008.12
2022-12-20T04:24:21.511Z,1008.08
2022-12-20T04:25:21.536Z,1008.10
2022-12-20T04:26:21.491Z,1008.10
2022-12-20T04:27:21.476Z,1008.06
2022-12-20T04:28:21.457Z,1008.05
2022-12-20T04:29:21.434Z,1008.01
2022-12-20T04:30:21.429Z,1007.98
2022-12-20T04:31:24.136Z,1007.98
2022-12-20T04:32:21.422Z,1007.95
2022-12-20T04:33:21.415Z,1007.93
2022-12-20T04:34:21.431Z,1007.92
2022-12-20T04:35:21.397Z,1007.87
2022-12-20T04:36:21.396Z,1007.88
2022-12-20T04:37:21.370Z,1007.90
2022-12-20T04:38:21.357Z,1007.88
2022-12-20T04:39:21.384Z,1007.93
2022-12-20T04:40:21.329Z,1007.92
2022-12-20T04:41:21.328Z,1007.92
2022-12-20T04:42:21.323Z,1007.88
2022-12-20T04:43:21.294Z,1007.87
2022-12-20T04:44:21.297Z,1007.91
2022-12-20T04:45:21.293Z,1007.86
2022-12-20T04:46:21.348Z,1007.93
2022-12-20T04:47:21.255Z,1007.92
2022-12-20T04:48:55.071Z,1007.92
2022-12-20T04:49:22.247Z,1007.89
2022-12-20T04:50:21.203Z,1007.88
2022-12-20T04:51:21.207Z,1007.85
2022-12-20T04:52:21.180Z,1007.86
2022-12-20T04:53:21.220Z,1007.87
2022-12-20T04:54:21.179Z,1007.95
2022-12-20T04:55:21.178Z,1007.98
2022-12-20T04:56:21.135Z,1008.02
2022-12-20T04:57:21.157Z,1007.96
2022-12-20T04:58:21.155Z,1007.93
2022-12-20T04:59:21.114Z,1007.95
2022-12-20T05:00:21.115Z,1008.01
2022-12-20T05:01:21.249Z,1008.06
2022-12-20T05:02:21.310Z,1008.06
2022-12-20T05:03:21.108Z,1008.07
2022-12-20T05:04:21.064Z,1008.00
2022-12-20T05:05:21.063Z,1007.96
2022-12-20T05:06:21.028Z,1007.95
2022-12-20T05:07:21.031Z,1007.92
2022-12-20T05:08:21.037Z,1007.86
2022-12-20T05:09:21.012Z,1007.85
2022-12-20T05:10:21.015Z,1007.86
2022-12-20T05:11:20.979Z,1007.86
2022-12-20T05:12:20.982Z,1007.84
2022-12-20T05:13:20.999Z,1007.85
2022-12-20T05:14:20.967Z,1007.80
2022-12-20T05:15:20.939Z,1007.82
2022-12-20T05:16:21.019Z,1007.81
2022-12-20T05:17:20.918Z,1007.81
2022-12-20T05:18:20.924Z,1007.84
2022-12-20T05:19:20.896Z,1007.84
2022-12-20T05:20:20.872Z,1007.82
2022-12-20T05:21:20.876Z,1007.83
2022-12-20T05:22:20.854Z,1007.80
2022-12-20T05:23:20.846Z,1007.79
2022-12-20T05:24:20.862Z,1007.79
2022-12-20T05:25:20.814Z,1007.80
2022-12-20T05:26:20.874Z,1007.80
2022-12-20T05:27:20.800Z,1007.83
2022-12-20T05:28:20.793Z,1007.81
2022-12-20T05:29:20.804Z,1007.88
2022-12-20T05:30:20.766Z,1007.88
2022-12-20T05:31:20.815Z,1007.86
2022-12-20T05:32:20.747Z,1007.85
2022-12-20T05:33:20.745Z,1007.86
2022-12-20T05:34:20.712Z,1007.85
2022-12-20T05:35:20.722Z,1007.88
2022-12-20T05:36:20.727Z,1007.83
2022-12-20T05:37:20.719Z,1007.83
2022-12-20T05:38:20.681Z,1007.75
2022-12-20T05:39:20.671Z,1007.81
2022-12-20T05:40:20.677Z,1007.78
2022-12-20T05:41:20.655Z,1007.77
2022-12-20T05:42:20.630Z,1007.79
2022-12-20T05:43:20.661Z,1007.79
2022-12-20T05:44:20.621Z,1007.70
2022-12-20T05:45:20.650Z,1007.70
2022-12-20T05:46:20.679Z,1007.66
2022-12-20T05:47:20.565Z,1007.65
2022-12-20T05:48:20.579Z,1007.63
2022-12-20T05:49:20.547Z,1007.61
2022-12-20T05:50:20.556Z,1007.56
2022-12-20T05:51:20.568Z,1007.51
2022-12-20T05:52:20.515Z,1007.57
2022-12-20T05:53:20.522Z,1007.59
2022-12-20T05:54:20.499Z,1007.53
2022-12-20T05:55:20.512Z,1007.58
2022-12-20T05:56:20.483Z,1007.53
2022-12-20T05:57:20.489Z,1007.52
2022-12-20T05:58:20.446Z,1007.57
2022-12-20T05:59:20.449Z,1007.61
2022-12-20T06:00:20.454Z,1007.56
2022-12-20T06:01:20.534Z,1007.57
2022-12-20T06:02:20.541Z,1007.54
2022-12-20T06:03:20.597Z,1007.47
2022-12-20T06:04:20.432Z,1007.49
2022-12-20T06:05:20.407Z,1007.51
2022-12-20T06:06:20.394Z,1007.53
2022-12-20T06:07:20.428Z,1007.54
2022-12-20T06:08:20.347Z,1007.53
2022-12-20T06:09:20.342Z,1007.55
2022-12-20T06:10:20.306Z,1007.59
2022-12-20T06:11:24.364Z,1007.59
2022-12-20T06:12:21.317Z,1007.59
2022-12-20T06:13:20.291Z,1007.60
2022-12-20T06:14:20.330Z,1007.58
2022-12-20T06:15:20.288Z,1007.49
2022-12-20T06:16:20.310Z,1007.50
2022-12-20T06:17:20.273Z,1007.49
2022-12-20T06:18:20.216Z,1007.40
2022-12-20T06:19:21.835Z,1007.40
2022-12-20T06:20:20.234Z,1007.35
2022-12-20T06:21:20.210Z,1007.30
2022-12-20T06:22:20.196Z,1007.27
2022-12-20T06:23:20.165Z,1007.27
2022-12-20T06:24:20.202Z,1007.27
2022-12-20T06:25:20.155Z,1007.31
2022-12-20T06:26:20.185Z,1007.26
2022-12-20T06:27:20.115Z,1007.31
2022-12-20T06:28:20.121Z,1007.30
2022-12-20T06:29:20.110Z,1007.35
2022-12-20T06:30:20.123Z,1007.30
2022-12-20T06:31:20.220Z,1007.28
2022-12-20T06:32:20.265Z,1007.26
2022-12-20T06:33:20.095Z,1007.27
2022-12-20T06:34:20.092Z,1007.29
2022-12-20T06:35:20.083Z,1007.33
2022-12-20T06:37:09.340Z,1007.40
2022-12-20T06:38:09.311Z,1007.42
2022-12-20T06:39:10.012Z,1007.38
2022-12-20T06:40:09.280Z,1007.39
2022-12-20T06:41:09.285Z,1007.42
2022-12-20T06:42:09.276Z,1007.37
2022-12-20T06:43:09.262Z,1007.35
2022-12-20T06:44:09.256Z,1007.30
2022-12-20T06:45:09.252Z,1007.30
2022-12-20T06:46:09.277Z,1007.33
2022-12-20T06:47:09.231Z,1007.36
2022-12-20T06:48:09.236Z,1007.35
2022-12-20T06:49:09.248Z,1007.36
2022-12-20T06:50:09.204Z,1007.29
2022-12-20T06:51:09.155Z,1007.28
2022-12-20T06:52:09.178Z,1007.23
2022-12-20T06:53:09.167Z,1007.21
2022-12-20T06:54:09.132Z,1007.15
2022-12-20T06:55:09.142Z,1007.14
2022-12-20T06:56:09.124Z,1007.05
2022-12-20T06:57:09.096Z,1007.05
2022-12-20T06:58:09.143Z,1006.92
2022-12-20T06:59:09.572Z,1006.94
2022-12-20T07:00:09.067Z,1006.96
2022-12-20T07:01:09.129Z,1006.95
2022-12-20T07:02:09.298Z,1006.94
2022-12-20T07:03:09.172Z,1006.99
2022-12-20T07:04:09.028Z,1007.03
2022-12-20T07:05:09.070Z,1007.05
2022-12-20T07:06:09.000Z,1007.01
2022-12-20T07:07:08.987Z,1006.95
2022-12-20T07:08:09.012Z,1006.95
2022-12-20T07:09:08.983Z,1007.01
2022-12-20T07:10:08.980Z,1007.01
2022-12-20T07:11:08.966Z,1007.04
2022-12-20T07:12:08.984Z,1007.01
2022-12-20T07:13:08.944Z,1007.04
2022-12-20T07:14:09.020Z,1006.97
2022-12-20T07:15:08.912Z,1006.99
2022-12-20T07:16:08.923Z,1006.97
2022-12-20T07:17:08.941Z,1006.99
2022-12-20T07:18:08.887Z,1006.93
2022-12-20T07:19:08.855Z,1006.87
2022-12-20T07:20:13.332Z,1006.93
2022-12-20T07:21:09.865Z,1006.94
2022-12-20T07:22:08.850Z,1006.92
2022-12-20T07:23:08.852Z,1006.89
2022-12-20T07:24:08.798Z,1006.87
2022-12-20T07:25:08.814Z,1006.79
2022-12-20T07:26:08.830Z,1006.79
2022-12-20T07:27:08.760Z,1006.78
2022-12-20T07:28:08.796Z,1006.75
2022-12-20T07:29:13.539Z,1006.71
2022-12-20T07:30:09.749Z,1006.71
2022-12-20T07:31:08.737Z,1006.62
2022-12-20T07:32:08.775Z,1006.65
2022-12-20T07:33:08.721Z,1006.73
2022-12-20T07:34:08.742Z,1006.73
2022-12-20T07:35:08.682Z,1006.76
2022-12-20T07:36:08.680Z,1006.72
2022-12-20T07:37:08.692Z,1006.73
2022-12-20T07:38:08.657Z,1006.72
2022-12-20T07:39:08.664Z,1006.66
2022-12-20T07:40:08.625Z,1006.69
2022-12-20T07:41:09.510Z,1006.73
2022-12-20T07:42:08.657Z,1006.66
2022-12-20T07:43:08.624Z,1006.70
2022-12-20T07:44:08.618Z,1006.74
2022-12-20T07:45:08.627Z,1006.73
2022-12-20T07:46:08.649Z,1006.76
2022-12-20T07:47:08.564Z,1006.76
2022-12-20T07:48:12.520Z,1006.74
2022-12-20T07:49:09.555Z,1006.70
2022-12-20T07:50:08.574Z,1006.72
2022-12-20T07:51:08.629Z,1006.70
2022-12-20T07:52:08.498Z,1006.69
2022-12-20T07:53:08.539Z,1006.71
2022-12-20T07:54:08.475Z,1006.70
2022-12-20T07:55:08.490Z,1006.70
2022-12-20T07:56:08.462Z,1006.69
2022-12-20T07:57:08.453Z,1006.67
2022-12-20T07:58:08.431Z,1006.68
2022-12-20T07:59:08.438Z,1006.71
2022-12-20T08:00:08.429Z,1006.74
2022-12-20T08:01:08.463Z,1006.77
2022-12-20T08:02:08.649Z,1006.78
2022-12-20T08:03:08.520Z,1006.76
2022-12-20T08:04:08.398Z,1006.80
2022-12-20T08:05:08.392Z,1006.80
2022-12-20T08:06:08.340Z,1006.86
2022-12-20T08:07:08.313Z,1006.90
2022-12-20T08:08:08.330Z,1006.85
2022-12-20T08:09:08.337Z,1006.87
2022-12-20T08:10:08.307Z,1006.88
2022-12-20T08:11:08.291Z,1006.87
2022-12-20T08:12:08.307Z,1006.86
2022-12-20T08:13:08.260Z,1006.77
2022-12-20T08:14:08.350Z,1006.84
2022-12-20T08:15:08.268Z,1006.83
2022-12-20T08:16:08.260Z,1006.85
2022-12-20T08:17:08.277Z,1006.83
2022-12-20T08:18:08.201Z,1006.83
2022-12-20T08:19:08.184Z,1006.81
2022-12-20T08:20:08.196Z,1006.81
2022-12-20T08:21:08.209Z,1006.78
2022-12-20T08:22:08.171Z,1006.78
2022-12-20T08:23:08.138Z,1006.78
2022-12-20T08:24:08.258Z,1006.78
2022-12-20T08:25:08.174Z,1006.75
2022-12-20T08:26:08.152Z,1006.71
2022-12-20T08:27:08.112Z,1006.78
2022-12-20T08:28:08.096Z,1006.82
2022-12-20T08:29:08.068Z,1006.80
2022-12-20T08:30:08.083Z,1006.78
2022-12-20T08:31:08.244Z,1006.77
2022-12-20T08:32:08.042Z,1006.72
2022-12-20T08:33:08.051Z,1006.67
2022-12-20T08:34:08.039Z,1006.66
2022-12-20T08:35:08.053Z,1006.66
2022-12-20T08:36:10.536Z,1006.65
2022-12-20T08:37:14.557Z,1006.67
2022-12-20T08:38:08.981Z,1006.60
2022-12-20T08:39:07.982Z,1006.70
2022-12-20T08:40:07.949Z,1006.67
2022-12-20T08:41:07.999Z,1006.64
2022-12-20T08:42:08.508Z,1006.58
2022-12-20T08:43:10.369Z,1006.58
2022-12-20T08:44:07.940Z,1006.56
2022-12-20T08:45:07.976Z,1006.59
2022-12-20T08:46:08.019Z,1006.55
2022-12-20T08:47:07.927Z,1006.50
2022-12-20T08:48:07.900Z,1006.53
2022-12-20T08:49:08.623Z,1006.56
2022-12-20T08:50:07.859Z,1006.54
2022-12-20T08:51:07.998Z,1006.52
2022-12-20T08:52:07.906Z,1006.54
2022-12-20T08:53:07.853Z,1006.55
2022-12-20T08:54:07.814Z,1006.49
2022-12-20T08:55:07.819Z,1006.51
2022-12-20T08:56:07.786Z,1006.53
2022-12-20T08:57:07.794Z,1006.55
2022-12-20T08:58:07.809Z,1006.46
2022-12-20T08:59:07.765Z,1006.43
2022-12-20T09:00:07.751Z,1006.37
2022-12-20T09:01:07.759Z,1006.34
2022-12-20T09:02:08.023Z,1006.34
2022-12-20T09:03:07.972Z,1006.32
2022-12-20T09:04:07.885Z,1006.33
2022-12-20T09:05:07.693Z,1006.30
2022-12-20T09:06:07.700Z,1006.26
2022-12-20T09:07:07.722Z,1006.30
2022-12-20T09:08:07.661Z,1006.32
2022-12-20T09:09:07.724Z,1006.36
2022-12-20T09:10:08.526Z,1006.33
2022-12-20T09:11:07.608Z,1006.40
2022-12-20T09:12:07.665Z,1006.34
2022-12-20T09:13:07.626Z,1006.36
2022-12-20T09:14:07.607Z,1006.31
2022-12-20T09:15:07.564Z,1006.32
2022-12-20T09:16:07.701Z,1006.38
2022-12-20T09:17:07.568Z,1006.35
2022-12-20T09:18:07.553Z,1006.37
2022-12-20T09:19:08.729Z,1006.40
2022-12-20T09:20:07.529Z,1006.34
2022-12-20T09:21:07.524Z,1006.39
2022-12-20T09:22:07.521Z,1006.39
2022-12-20T09:23:07.515Z,1006.44
2022-12-20T09:24:07.527Z,1006.47
2022-12-20T09:25:07.506Z,1006.44
2022-12-20T09:26:07.430Z,1006.46
2022-12-20T09:27:07.519Z,1006.45
2022-12-20T09:28:07.507Z,1006.48
2022-12-20T09:29:07.426Z,1006.47
2022-12-20T09:30:07.405Z,1006.46
2022-12-20T09:31:07.467Z,1006.47
2022-12-20T09:32:07.446Z,1006.45
2022-12-20T09:33:10.483Z,1006.44
2022-12-20T09:34:07.346Z,1006.48
2022-12-20T09:35:07.351Z,1006.42
2022-12-20T09:36:07.332Z,1006.41
2022-12-20T09:37:07.323Z,1006.41
2022-12-20T09:38:07.349Z,1006.39
2022-12-20T09:39:07.300Z,1006.39
2022-12-20T09:40:07.327Z,1006.41
2022-12-20T09:41:07.251Z,1006.41
2022-12-20T09:42:07.276Z,1006.35
2022-12-20T09:43:07.272Z,1006.33
2022-12-20T09:44:07.246Z,1006.35
2022-12-20T09:45:07.279Z,1006.35
2022-12-20T09:46:07.265Z,1006.31
2022-12-20T09:47:10.822Z,1006.38
2022-12-20T09:48:07.173Z,1006.37
2022-12-20T09:49:07.172Z,1006.34
2022-12-20T09:50:07.153Z,1006.30
2022-12-20T09:51:07.179Z,1006.36
2022-12-20T09:52:07.134Z,1006.27
2022-12-20T09:53:07.117Z,1006.33
2022-12-20T09:54:07.139Z,1006.33
2022-12-20T09:55:07.180Z,1006.38
2022-12-20T09:56:07.128Z,1006.31
2022-12-20T09:57:07.135Z,1006.33
2022-12-20T09:58:07.083Z,1006.34
2022-12-20T09:59:07.075Z,1006.39
2022-12-20T10:00:07.086Z,1006.48
2022-12-20T10:01:07.094Z,1006.50
2022-12-20T10:02:35.135Z,1006.48
2022-12-20T10:03:10.818Z,1006.44
2022-12-20T10:04:07.278Z,1006.47
2022-12-20T10:05:07.221Z,1006.47
2022-12-20T10:06:07.207Z,1006.43
2022-12-20T10:07:07.001Z,1006.49
2022-12-20T10:08:06.957Z,1006.49
2022-12-20T10:09:06.957Z,1006.47
2022-12-20T10:10:06.999Z,1006.46
2022-12-20T10:11:06.996Z,1006.42
2022-12-20T10:12:06.957Z,1006.43
2022-12-20T10:13:06.897Z,1006.44
2022-12-20T10:14:06.891Z,1006.42
2022-12-20T10:15:06.885Z,1006.43
2022-12-20T10:16:06.950Z,1006.40
2022-12-20T10:17:06.881Z,1006.46
2022-12-20T10:18:06.861Z,1006.40
2022-12-20T10:19:06.839Z,1006.44
2022-12-20T10:20:06.903Z,1006.41
2022-12-20T10:21:06.827Z,1006.33
2022-12-20T10:22:06.809Z,1006.34
2022-12-20T10:23:06.875Z,1006.27
2022-12-20T10:24:06.902Z,1006.25
2022-12-20T10:25:06.790Z,1006.21
2022-12-20T10:26:06.796Z,1006.19
2022-12-20T10:27:06.761Z,1006.20
2022-12-20T10:28:06.723Z,1006.25
2022-12-20T10:29:06.782Z,1006.31
2022-12-20T10:30:06.760Z,1006.33
2022-12-20T10:31:06.842Z,1006.30
2022-12-20T10:32:06.695Z,1006.36
2022-12-20T10:33:06.708Z,1006.37
2022-12-20T10:34:06.686Z,1006.37
2022-12-20T10:35:06.715Z,1006.34
2022-12-20T10:36:06.647Z,1006.27
2022-12-20T10:37:06.635Z,1006.29
2022-12-20T10:38:07.976Z,1006.30
2022-12-20T10:39:06.624Z,1006.30
2022-12-20T10:40:07.822Z,1006.27
2022-12-20T10:41:23.289Z,1006.30
2022-12-20T10:42:07.597Z,1006.22
2022-12-20T10:43:06.563Z,1006.21
2022-12-20T10:44:06.604Z,1006.23
2022-12-20T10:45:06.584Z,1006.21
2022-12-20T10:46:06.667Z,1006.22
2022-12-20T10:47:07.707Z,1006.09
2022-12-20T10:48:06.506Z,1006.04
2022-12-20T10:49:06.694Z,1006.07
2022-12-20T10:50:06.506Z,1006.03
2022-12-20T10:51:10.582Z,1005.98
2022-12-20T10:52:07.465Z,1005.97
2022-12-20T10:53:06.438Z,1006.02
2022-12-20T10:54:06.447Z,1006.10
2022-12-20T10:55:06.439Z,1006.03
2022-12-20T10:56:06.415Z,1006.01
2022-12-20T10:57:10.489Z,1005.96
2022-12-20T10:58:07.388Z,1005.87
2022-12-20T10:59:06.379Z,1005.86
2022-12-20T11:00:06.390Z,1005.82
2022-12-20T11:01:06.363Z,1005.84
2022-12-20T11:02:06.396Z,1005.82
2022-12-20T11:03:06.583Z,1005.82
2022-12-20T11:04:06.424Z,1005.74
2022-12-20T11:05:06.389Z,1005.76
2022-12-20T11:06:06.300Z,1005.77
2022-12-20T11:07:06.286Z,1005.78
2022-12-20T11:09:07.277Z,1005.78
2022-12-20T11:10:06.700Z,1005.75
2022-12-20T11:11:06.246Z,1005.74
2022-12-20T11:12:06.244Z,1005.71
2022-12-20T11:13:06.288Z,1005.74
2022-12-20T11:14:06.237Z,1005.70
2022-12-20T11:15:06.241Z,1005.71
2022-12-20T11:16:06.291Z,1005.71
2022-12-20T11:17:06.162Z,1005.76
2022-12-20T11:18:06.169Z,1005.73
2022-12-20T11:19:06.198Z,1005.74
2022-12-20T11:20:06.157Z,1005.67
2022-12-20T11:21:09.744Z,1005.73
2022-12-20T11:22:07.152Z,1005.70
2022-12-20T11:23:06.107Z,1005.69
2022-12-20T11:24:06.108Z,1005.67
2022-12-20T11:25:06.092Z,1005.66
2022-12-20T11:26:06.081Z,1005.62
2022-12-20T11:27:10.513Z,1005.59
2022-12-20T11:28:07.072Z,1005.60
2022-12-20T11:29:06.043Z,1005.59
2022-12-20T11:30:06.097Z,1005.60
2022-12-20T11:31:06.076Z,1005.57
2022-12-20T11:32:06.036Z,1005.56
2022-12-20T11:33:05.989Z,1005.56
2022-12-20T11:34:06.018Z,1005.49
2022-12-20T11:35:05.975Z,1005.49
2022-12-20T11:36:05.950Z,1005.53
2022-12-20T11:37:05.984Z,1005.54
2022-12-20T11:38:09.855Z,1005.50
2022-12-20T11:39:05.940Z,1005.49
2022-12-20T11:40:05.909Z,1005.56
2022-12-20T11:41:06.037Z,1005.54
2022-12-20T11:42:06.044Z,1005.50
2022-12-20T11:43:05.914Z,1005.58
2022-12-20T11:45:09.796Z,1005.49
2022-12-20T11:46:05.831Z,1005.47
2022-12-20T11:47:05.948Z,1005.47
2022-12-20T11:48:05.847Z,1005.47
2022-12-20T11:49:05.820Z,1005.42
2022-12-20T11:50:05.829Z,1005.47
2022-12-20T11:51:08.620Z,1005.42
2022-12-20T11:52:06.801Z,1005.40
2022-12-20T11:53:05.807Z,1005.37
2022-12-20T11:54:05.771Z,1005.35
2022-12-20T11:55:05.744Z,1005.35
2022-12-20T11:56:05.749Z,1005.34
2022-12-20T11:57:05.710Z,1005.32
2022-12-20T11:58:21.465Z,1005.26
2022-12-20T11:59:06.774Z,1005.24
2022-12-20T12:00:05.680Z,1005.25
2022-12-20T12:01:05.689Z,1005.14
2022-12-20T12:02:05.886Z,1005.17
2022-12-20T12:03:05.685Z,1005.16
2022-12-20T12:04:05.640Z,1005.07
2022-12-20T12:05:05.757Z,1005.10
2022-12-20T12:06:05.696Z,1005.11
2022-12-20T12:07:05.649Z,1005.12
2022-12-20T12:08:05.611Z,1005.12